from: Dec 12 2018 8:05 pm until: Dec 13 2018 5:00 am Special Weather Statement level: Minor
Minimal threat to life or property - Responsive action SHOULD be taken soon (within next hour)
...PATCHY BLACK ICE EXPECTED LATE TONIGHT AND EARLY THURSDAY MORNING... As temperatures drop below freezing late this evening, any water running off from recent snow melt may refreeze on area roadways that have not been treated. This could result in patches of black ice late tonight and early Thursday. The temperature should climb

Thunder radar more information blitzortung!


Rain radar more information rain snow radar


Visit our other weather sites:

Template documentation
and downloads

And another site



Weather Underground History page Text

Daily Summary for December 12, 2018 Units:  English    Metric   Both
« Previous Day
Next Day »
Daily Weekly Monthly Yearly Custom
  Current: High: Low: Average:
Temperature: 31.4 °F TemperatureF °F 25.2 °F 31.1 °F
Dew Point: 30.9 °F DewpointF °F 24 °F 30.4 °F
Humidity: 98 % Humidity % 95 % 97 %
Wind Speed: 2.7 mph WindSpeedMPH mph 0 mph 1.2 mph
Wind Gust: 3.6 mph WindSpeedGustMPH mph - -
Wind:WSW - - SSW
Pressure: 29.86 in PressureIn in 29.65 in -
Precipitation: 0.093 in      
Historical Graphs
 
 
Tabular Data for December 12, 2018
Time Temperature Dew Point Pressure Wind Wind Speed Wind Gust Humidity Rainfall Rate (Hourly)
TemperatureF °F DewpointF °F PressureIn in Calm     Humidity % HourlyPrecipIn in
00:04 25.2 °F 24 °F 29.85 in Calm     95 % 0 in
00:09 25.3 °F 24.3 °F 29.85 in SSE 0.2 mph 2.3 mph 96 % 0 in
00:14 25.4 °F 24.4 °F 29.85 in West 0.5 mph 3.5 mph 96 % 0 in
00:19 25.4 °F 24.4 °F 29.85 in Calm   1.2 mph 96 % 0 in
00:24 25.5 °F 24.5 °F 29.84 in Calm     96 % 0 in
00:29 25.5 °F 24.5 °F 29.84 in Calm     96 % 0 in
00:34 25.6 °F 24.6 °F 29.84 in East 0.4 mph 4.8 mph 96 % 0 in
00:39 25.7 °F 24.7 °F 29.84 in East 0.7 mph 1.2 mph 96 % 0 in
00:44 25.8 °F 24.8 °F 29.84 in SSW 0.3 mph 2.3 mph 96 % 0 in
00:49 25.8 °F 24.8 °F 29.83 in SSE 0.2 mph 3.5 mph 96 % 0 in
00:54 26 °F 25 °F 29.83 in SSW 2.2 mph 4.6 mph 96 % 0 in
00:59 26 °F 25 °F 29.83 in SSE 0.1 mph 3.5 mph 96 % 0 in
01:04 26.1 °F 25.1 °F 29.82 in WNW 0.1 mph 4.6 mph 96 % 0 in
01:09 26.1 °F 25.1 °F 29.83 in ESE 1.1 mph 3.5 mph 96 % 0 in
01:14 26.3 °F 25.3 °F 29.82 in SSW 0.2 mph 2.3 mph 96 % 0 in
01:19 26.3 °F 25.3 °F 29.81 in SE 1.9 mph 6.9 mph 96 % 0 in
01:24 26.4 °F 25.4 °F 29.81 in ESE 1.2 mph 2.4 mph 96 % 0 in
01:29 26.5 °F 25.5 °F 29.81 in SSE 1.1 mph 3.5 mph 96 % 0 in
01:34 26.6 °F 25.6 °F 29.80 in South 0.9 mph 2.3 mph 96 % 0 in
01:39 26.7 °F 25.7 °F 29.80 in SSE 1.5 mph 2.4 mph 96 % 0 in
01:44 26.7 °F 25.7 °F 29.80 in SW 1.1 mph 1.2 mph 96 % 0 in
01:49 26.9 °F 25.9 °F 29.80 in South 0.6 mph 1.2 mph 96 % 0 in
01:54 26.9 °F 25.9 °F 29.80 in SE 1.4 mph 2.3 mph 96 % 0 in
01:59 27 °F 26 °F 29.80 in SSW 2.3 mph 2.4 mph 96 % 0 in
02:04 27.1 °F 26.1 °F 29.78 in ENE 2.3 mph 2.4 mph 96 % 0 in
02:09 27.1 °F 26.1 °F 29.78 in ENE 1.6 mph 2.3 mph 96 % 0 in
02:14 27.2 °F 26.2 °F 29.77 in ENE 4.3 mph 6 mph 96 % 0 in
02:19 27.4 °F 26.4 °F 29.77 in NNW 2.6 mph 4.8 mph 96 % 0 in
02:24 27.5 °F 26.5 °F 29.77 in North 3.8 mph 3.5 mph 96 % 0 in
02:29 27.5 °F 26.5 °F 29.77 in South 1.3 mph 2.4 mph 96 % 0 in
02:34 27.6 °F 26.6 °F 29.77 in SW 2.6 mph 4.6 mph 96 % 0 in
02:39 27.6 °F 26.6 °F 29.77 in South 3.9 mph 4.6 mph 96 % 0 in
02:44 27.7 °F 26.7 °F 29.76 in West 2.7 mph 4.8 mph 96 % 0 in
02:49 27.8 °F 26.8 °F 29.76 in ENE 2.2 mph 6.9 mph 96 % 0 in
02:54 27.8 °F 26.8 °F 29.75 in NNE 1.2 mph 2.3 mph 96 % 0 in
02:59 27.9 °F 26.9 °F 29.75 in South 1.5 mph 2.3 mph 96 % 0 in
03:04 28 °F 27 °F 29.75 in North 1.5 mph 3.5 mph 96 % 0 in
03:09 28.1 °F 27.1 °F 29.75 in ESE 1 mph 5.8 mph 96 % 0 in
03:14 28.1 °F 27.1 °F 29.75 in SE 2.3 mph 4.6 mph 96 % 0 in
03:19 28.2 °F 27.2 °F 29.75 in SE 0.9 mph 2.3 mph 96 % 0 in
03:24 28.3 °F 27.3 °F 29.75 in NE 0.9 mph 2.3 mph 96 % 0 in
03:29 28.3 °F 27.3 °F 29.74 in SE 2.7 mph 2.4 mph 96 % 0 in
03:34 28.4 °F 27.4 °F 29.73 in SE 1.5 mph 4.8 mph 96 % 0 in
03:39 28.5 °F 27.5 °F 29.73 in SSW 2.8 mph 4.6 mph 96 % 0 in
03:44 28.7 °F 27.7 °F 29.73 in SSW 1.8 mph 2.4 mph 96 % 0 in
03:49 28.7 °F 27.7 °F 29.73 in SE 1.2 mph 1.2 mph 96 % 0 in
03:54 28.8 °F 27.8 °F 29.73 in South 0.8 mph 1.2 mph 96 % 0 in
03:59 28.8 °F 27.8 °F 29.72 in ESE 2.6 mph 4.6 mph 96 % 0 in
04:04 28.9 °F 27.9 °F 29.72 in ESE 2.9 mph 4.8 mph 96 % 0 in
04:09 29 °F 28 °F 29.73 in SSW 1.2 mph 3.5 mph 96 % 0 in
04:14 29.1 °F 28.1 °F 29.72 in SSE 1.6 mph 2.3 mph 96 % 0 in
04:19 29.1 °F 28.1 °F 29.72 in SSE 2 mph 5.8 mph 96 % 0 in
04:24 29.2 °F 28.2 °F 29.72 in SSE 0.9 mph 2.4 mph 96 % 0 in
04:29 29.3 °F 28.3 °F 29.71 in East 1 mph 4.6 mph 96 % 0 in
04:34 29.3 °F 28.3 °F 29.71 in ENE 3.8 mph 4.6 mph 96 % 0 in
04:39 29.4 °F 28.4 °F 29.72 in SSE 1 mph 2.3 mph 96 % 0 in
04:44 29.5 °F 28.5 °F 29.71 in ENE 1.5 mph 4.8 mph 96 % 0 in
04:49 29.6 °F 28.6 °F 29.70 in East 4.3 mph 4.8 mph 96 % 0 in
04:54 29.7 °F 28.7 °F 29.69 in South 4.3 mph 3.5 mph 96 % 0 in
04:59 29.7 °F 28.7 °F 29.69 in ENE 1.5 mph 3.6 mph 96 % 0 in
05:04 29.7 °F 28.7 °F 29.69 in ESE 4.2 mph 7.2 mph 96 % 0 in
05:09 29.7 °F 28.7 °F 29.69 in SSE 1.4 mph 2.4 mph 96 % 0 in
05:14 29.8 °F 28.8 °F 29.69 in South 0.2 mph 2.3 mph 96 % 0 in
05:19 29.9 °F 28.9 °F 29.68 in East 1 mph 3.5 mph 96 % 0 in
05:24 29.9 °F 28.9 °F 29.68 in ESE 1.3 mph 1.2 mph 96 % 0 in
05:29 30.1 °F 29.1 °F 29.68 in ENE 2.7 mph 4.6 mph 96 % 0 in
05:34 30.1 °F 29.1 °F 29.68 in SSE 1.3 mph 2.3 mph 96 % 0 in
05:39 30.2 °F 29.2 °F 29.68 in NE 1.2 mph 3.5 mph 96 % 0 in
05:44 30.3 °F 29.3 °F 29.68 in ESE 0.3 mph 2.4 mph 96 % 0 in
05:49 30.5 °F 29.5 °F 29.69 in South 2.2 mph 2.3 mph 96 % 0 in
05:54 30.6 °F 29.6 °F 29.69 in ENE 1.5 mph 2.3 mph 96 % 0 in
05:59 30.7 °F 29.7 °F 29.69 in SSW 3 mph 9.2 mph 96 % 0 in
06:04 30.8 °F 29.8 °F 29.69 in SSW 1.8 mph 2.4 mph 96 % 0 in
06:09 30.8 °F 29.8 °F 29.69 in Calm     96 % 0 in
06:14 30.8 °F 30 °F 29.68 in Calm   1.2 mph 97 % 0 in
06:19 30.8 °F 30 °F 29.69 in SSW 0.9 mph 1.2 mph 97 % 0 in
06:24 30.9 °F 30.1 °F 29.68 in South 1.4 mph 2.3 mph 97 % 0.012 in
06:29 30.9 °F 30.1 °F 29.68 in East 1.4 mph 4.6 mph 97 % 0.012 in
06:34 31 °F 30.2 °F 29.68 in East 0.6 mph 1.2 mph 97 % 0.012 in
06:39 31 °F 30.2 °F 29.68 in East 0.7 mph 1.2 mph 97 % 0.012 in
06:44 31.1 °F 30.3 °F 29.68 in East 1.6 mph 2.3 mph 97 % 0.012 in
06:49 31.1 °F 30.3 °F 29.68 in East 0.4 mph 1.2 mph 97 % 0.012 in
06:54 31.1 °F 30.3 °F 29.68 in East 0.9 mph 2.4 mph 97 % 0.012 in
06:59 31.1 °F 30.3 °F 29.68 in East 1.2 mph 1.2 mph 97 % 0.023 in
07:04 31.1 °F 30.3 °F 29.67 in East 0.5 mph 2.3 mph 97 % 0.023 in
07:09 31.1 °F 30.3 °F 29.67 in ENE 2.2 mph 3.5 mph 97 % 0.035 in
07:14 31.2 °F 30.7 °F 29.66 in NE 0.3 mph 1.2 mph 98 % 0.046 in
07:19 31.2 °F 30.7 °F 29.66 in ENE 0.1 mph 1.2 mph 98 % 0.058 in
07:24 31.2 °F 30.7 °F 29.66 in ENE 0.1 mph 1.2 mph 98 % 0.046 in
07:29 31.2 °F 30.7 °F 29.66 in East 1.8 mph 1.2 mph 98 % 0.058 in
07:34 31.2 °F 30.7 °F 29.65 in Calm   1.2 mph 98 % 0.07 in
07:39 31.3 °F 30.8 °F 29.65 in Calm   1.2 mph 98 % 0.07 in
07:44 31.3 °F 30.8 °F 29.66 in ENE 1.7 mph 1.2 mph 98 % 0.07 in
07:49 31.4 °F 30.9 °F 29.66 in SSE 1.7 mph 2.3 mph 98 % 0.07 in
07:54 31.5 °F 31 °F 29.66 in SSE 0.8 mph 1.2 mph 98 % 0.07 in
07:59 31.6 °F 31.1 °F 29.66 in ESE 1.1 mph 2.3 mph 98 % 0.058 in
08:04 31.6 °F 31.1 °F 29.66 in Calm     98 % 0.07 in
08:09 31.7 °F 31.2 °F 29.66 in SE 1.5 mph 1.2 mph 98 % 0.058 in
08:14 31.7 °F 31.2 °F 29.66 in SE 0.4 mph 1.2 mph 98 % 0.046 in
08:19 31.8 °F 31.3 °F 29.66 in ESE 1.1 mph 2.3 mph 98 % 0.035 in
08:24 31.9 °F 31.4 °F 29.66 in ESE 0.6 mph 2.3 mph 98 % 0.035 in
08:29 31.9 °F 31.4 °F 29.66 in ESE 1.6 mph 2.4 mph 98 % 0.023 in
08:34 32 °F 31.5 °F 29.66 in ENE 3.1 mph 3.6 mph 98 % 0.012 in
08:39 32.1 °F 31.6 °F 29.65 in ENE 0.7 mph 1.2 mph 98 % 0.012 in
08:44 32.1 °F 31.6 °F 29.66 in East 0.4 mph 2.3 mph 98 % 0.012 in
08:49 32.2 °F 31.7 °F 29.65 in East 0.5 mph 1.2 mph 98 % 0.012 in
08:54 32.3 °F 31.8 °F 29.65 in SSE 1.6 mph 1.2 mph 98 % 0.012 in
08:59 32.3 °F 31.8 °F 29.65 in Calm     98 % 0.012 in
09:04 32.4 °F 31.9 °F 29.65 in SE 0.7 mph 2.3 mph 98 % 0 in
09:09 32.5 °F 32 °F 29.65 in Calm     98 % 0 in
09:14 32.5 °F 32 °F 29.65 in Calm     98 % 0 in
09:19 32.6 °F 32.1 °F 29.66 in Calm     98 % 0 in
09:24 32.6 °F 32.1 °F 29.66 in Calm     98 % 0 in
09:29 32.7 °F 32.2 °F 29.66 in Calm     98 % 0 in
09:34 32.8 °F 32.3 °F 29.66 in Calm     98 % 0 in
09:39 32.8 °F 32.3 °F 29.66 in Calm     98 % 0 in
09:44 32.8 °F 32.3 °F 29.66 in SE 0.3 mph 1.2 mph 98 % 0 in
09:49 32.9 °F 32.4 °F 29.66 in Calm     98 % 0 in
09:54 32.9 °F 32.4 °F 29.66 in Calm     98 % 0 in
09:59 33 °F 32.5 °F 29.66 in Calm     98 % 0 in
10:04 33.1 °F 32.6 °F 29.66 in Calm     98 % 0 in
10:09 33.1 °F 32.6 °F 29.66 in Calm     98 % 0 in
10:14 33.1 °F 32.6 °F 29.66 in Calm     98 % 0 in
10:19 33.2 °F 32.7 °F 29.67 in Calm     98 % 0 in
10:24 33.2 °F 32.7 °F 29.67 in Calm     98 % 0 in
10:29 33.4 °F 32.9 °F 29.67 in Calm     98 % 0 in
10:34 33.4 °F 32.9 °F 29.67 in Calm     98 % 0 in
10:39 33.4 °F 32.9 °F 29.67 in Calm     98 % 0 in
10:44 33.4 °F 32.9 °F 29.66 in Calm     98 % 0 in
10:49 33.5 °F 33 °F 29.66 in Calm     98 % 0 in
10:54 33.6 °F 33.1 °F 29.66 in Calm     98 % 0 in
10:59 33.8 °F 33.3 °F 29.66 in Calm     98 % 0 in
11:04 33.9 °F 33.4 °F 29.66 in Calm     98 % 0 in
11:09 33.9 °F 33.4 °F 29.66 in Calm     98 % 0 in
11:14 33.9 °F 33.4 °F 29.66 in Calm     98 % 0 in
11:19 34 °F 33.5 °F 29.65 in Calm     98 % 0 in
11:24 34.2 °F 33.7 °F 29.65 in Calm     98 % 0 in
11:29 34.2 °F 33.7 °F 29.65 in Calm     98 % 0 in
11:34 34.2 °F 33.7 °F 29.65 in Calm     98 % 0 in
11:39 34.2 °F 33.7 °F 29.66 in Calm     98 % 0 in
11:44 34.3 °F 33.8 °F 29.66 in Calm     98 % 0 in
11:49 34.4 °F 33.9 °F 29.65 in Calm     98 % 0 in
11:54 34.4 °F 33.9 °F 29.66 in Calm     98 % 0 in
11:59 34.4 °F 33.9 °F 29.66 in Calm     98 % 0 in
12:04 34.4 °F 33.9 °F 29.66 in Calm     98 % 0 in
12:09 34.4 °F 33.9 °F 29.66 in Calm     98 % 0 in
12:14 34.4 °F 33.9 °F 29.66 in Calm     98 % 0 in
12:19 34.4 °F 33.9 °F 29.66 in Calm     98 % 0 in
12:24 34.4 °F 33.9 °F 29.66 in Calm     98 % 0 in
12:29 34.4 °F 33.9 °F 29.66 in Calm     98 % 0 in
12:34 34.4 °F 33.9 °F 29.66 in Calm     98 % 0 in
12:39 34.4 °F 33.9 °F 29.66 in Calm     98 % 0 in
12:44 34.3 °F 33.8 °F 29.67 in Calm     98 % 0 in
12:49 34.4 °F 33.9 °F 29.67 in Calm     98 % 0 in
12:54 34.3 °F 33.8 °F 29.67 in Calm     98 % 0 in
12:59 34.3 °F 33.8 °F 29.67 in Calm     98 % 0 in
13:04 34.3 °F 33.8 °F 29.68 in Calm     98 % 0 in
13:09 34.2 °F 33.7 °F 29.68 in Calm   1.2 mph 98 % 0 in
13:14 34.1 °F 33.6 °F 29.68 in Calm     98 % 0 in
13:19 34.1 °F 33.6 °F 29.68 in Calm     98 % 0 in
13:24 33.9 °F 33.4 °F 29.69 in Calm     98 % 0 in
13:29 33.9 °F 33.4 °F 29.69 in Calm     98 % 0 in
13:34 33.9 °F 33.4 °F 29.69 in Calm     98 % 0 in
13:39 33.8 °F 33.3 °F 29.69 in Calm     98 % 0 in
13:44 33.8 °F 33.3 °F 29.70 in Calm     98 % 0 in
13:49 33.8 °F 33.3 °F 29.70 in NW 0.7 mph 1.2 mph 98 % 0 in
13:54 33.8 °F 33.3 °F 29.70 in NW 1.8 mph 4.6 mph 98 % 0 in
13:59 33.8 °F 33.3 °F 29.70 in NW 2 mph 2.4 mph 98 % 0 in
14:04 33.7 °F 33.2 °F 29.70 in NW 5 mph 5.8 mph 98 % 0 in
14:09 33.7 °F 33.2 °F 29.70 in WNW 1.5 mph 4.6 mph 98 % 0 in
14:14 33.7 °F 33.2 °F 29.70 in WNW 2.2 mph 4.8 mph 98 % 0 in
14:19 33.7 °F 32.9 °F 29.70 in WNW 2.4 mph 2.4 mph 97 % 0 in
14:24 33.7 °F 32.9 °F 29.71 in West 2.4 mph 4.6 mph 97 % 0 in
14:29 33.7 °F 32.9 °F 29.71 in West 1.2 mph 2.3 mph 97 % 0 in
14:34 33.7 °F 32.9 °F 29.71 in WNW 2.7 mph 2.4 mph 97 % 0 in
14:39 33.7 °F 32.9 °F 29.71 in WSW 2.8 mph 4.6 mph 97 % 0 in
14:44 33.7 °F 33.2 °F 29.72 in WSW 2.4 mph 2.4 mph 98 % 0 in
14:49 33.6 °F 33.1 °F 29.73 in WNW 2.4 mph 2.4 mph 98 % 0 in
14:54 33.5 °F 33 °F 29.73 in West 4.1 mph 4.8 mph 98 % 0 in
14:59 33.5 °F 32.7 °F 29.73 in West 2.6 mph 5.8 mph 97 % 0 in
15:04 33.5 °F 33 °F 29.73 in WSW 0.8 mph 2.3 mph 98 % 0 in
15:09 33.4 °F 32.9 °F 29.74 in West 1.1 mph 3.5 mph 98 % 0 in
15:14 33.4 °F 32.9 °F 29.75 in West 2 mph 3.5 mph 98 % 0 in
15:19 33.3 °F 32.8 °F 29.74 in NW 4.7 mph 4.6 mph 98 % 0 in
15:24 33.2 °F 32.7 °F 29.75 in NW 1.2 mph 4.6 mph 98 % 0 in
15:29 33.2 °F 32.7 °F 29.75 in WNW 1.5 mph 2.4 mph 98 % 0 in
15:34 33.2 °F 32.7 °F 29.75 in WNW 2.9 mph 4.6 mph 98 % 0 in
15:39 33.1 °F 32.6 °F 29.76 in West 1.6 mph 4.6 mph 98 % 0 in
15:44 33.1 °F 32.6 °F 29.76 in WNW 1.2 mph 4.6 mph 98 % 0 in
15:49 33 °F 32.5 °F 29.77 in WNW 2.6 mph 2.3 mph 98 % 0 in
15:54 33 °F 32.5 °F 29.77 in West 3 mph 4.8 mph 98 % 0 in
15:59 32.9 °F 32.4 °F 29.77 in WNW 3.2 mph 4.6 mph 98 % 0 in
16:04 32.8 °F 32.3 °F 29.77 in NNW 3.4 mph 4.6 mph 98 % 0 in
16:09 32.7 °F 32.2 °F 29.78 in West 3.3 mph 4.8 mph 98 % 0 in
16:14 32.6 °F 32.1 °F 29.78 in WNW 2.4 mph 4.6 mph 98 % 0 in
16:19 32.6 °F 32.1 °F 29.78 in NNW 1.7 mph 2.4 mph 98 % 0 in
16:24 32.5 °F 32 °F 29.78 in NW 3.6 mph 6 mph 98 % 0 in
16:29 32.5 °F 32 °F 29.79 in NW 2.6 mph 4.6 mph 98 % 0 in
16:34 32.4 °F 31.9 °F 29.79 in NW 2 mph 4.6 mph 98 % 0 in
16:39 32.4 °F 31.9 °F 29.79 in NW 2.3 mph 5.8 mph 98 % 0 in
16:44 32.4 °F 31.9 °F 29.79 in West 1.8 mph 3.5 mph 98 % 0 in
16:49 32.3 °F 31.8 °F 29.79 in West 2.2 mph 4.6 mph 98 % 0 in
16:54 32.3 °F 31.8 °F 29.79 in West 1.1 mph 2.4 mph 98 % 0 in
16:59 32.3 °F 31.8 °F 29.79 in NW 0.9 mph 1.2 mph 98 % 0 in
17:04 32.3 °F 31.8 °F 29.79 in NW 2 mph 2.3 mph 98 % 0 in
17:09 32.3 °F 31.8 °F 29.80 in NW 1.5 mph 2.3 mph 98 % 0 in
17:14 32.2 °F 31.7 °F 29.80 in WNW 2.4 mph 2.4 mph 98 % 0 in
17:19 32.2 °F 31.7 °F 29.80 in West 4.7 mph 4.8 mph 98 % 0 in
17:24 32.2 °F 31.7 °F 29.81 in West 0.7 mph 1.2 mph 98 % 0 in
17:29 32.2 °F 31.7 °F 29.81 in West 3 mph 2.4 mph 98 % 0 in
17:34 32.2 °F 31.7 °F 29.81 in West 2.9 mph 3.6 mph 98 % 0 in
17:39 32.2 °F 31.7 °F 29.82 in West 1.9 mph 2.4 mph 98 % 0 in
17:44 32.2 °F 31.7 °F 29.82 in West 2.1 mph 2.3 mph 98 % 0 in
17:49 32.2 °F 31.7 °F 29.82 in West 2.5 mph 2.4 mph 98 % 0 in
17:54 32.2 °F 31.7 °F 29.82 in WSW 1.8 mph 3.5 mph 98 % 0 in
17:59 32.2 °F 31.7 °F 29.83 in WSW 3.1 mph 3.6 mph 98 % 0 in
18:04 32.1 °F 31.6 °F 29.83 in WSW 1.4 mph 3.5 mph 98 % 0 in
18:09 32.1 °F 31.6 °F 29.83 in WSW 0.5 mph 1.2 mph 98 % 0 in
18:14 32.1 °F 31.6 °F 29.84 in WSW 3 mph 3.5 mph 98 % 0 in
18:19 32 °F 31.5 °F 29.84 in WSW 1.3 mph 2.4 mph 98 % 0 in
18:24 31.8 °F 31.3 °F 29.84 in WSW 2.6 mph 4.6 mph 98 % 0 in
18:29 31.8 °F 31.3 °F 29.84 in WSW 1.1 mph 2.3 mph 98 % 0 in
18:34 31.7 °F 31.2 °F 29.84 in WSW 0.7 mph 1.2 mph 98 % 0 in
18:39 31.7 °F 31.2 °F 29.84 in Calm     98 % 0 in
18:44 31.7 °F 31.2 °F 29.84 in Calm     98 % 0 in
18:49 31.7 °F 31.2 °F 29.84 in Calm     98 % 0 in
18:54 31.6 °F 31.1 °F 29.84 in Calm     98 % 0 in
18:59 31.5 °F 31 °F 29.84 in Calm     98 % 0 in
19:04 31.5 °F 31 °F 29.84 in WSW 0.1 mph 2.3 mph 98 % 0 in
19:09 31.5 °F 31 °F 29.84 in Calm     98 % 0 in
19:14 31.5 °F 31 °F 29.85 in Calm     98 % 0 in
19:19 31.5 °F 31 °F 29.85 in Calm     98 % 0 in
19:24 31.5 °F 31 °F 29.86 in WSW 1.8 mph 3.5 mph 98 % 0 in
19:29 31.4 °F 30.9 °F 29.86 in WSW 2.7 mph 3.6 mph 98 % 0 in
Sunset Mountain, Asheville NC USA
Compliments of Weather Underground - 4 mb

Script developed by  Jim McMurry - jmcmurry@mwt.net Adapted for the template by  Wim van der Kuil - Leuven-Template.eu

You find our weather info also at:


Weather Underground

AWEKAS

Citizen Weather Observer Program (CWOP)

HAMweather, WeatherForYou, PWS Weather

Equipment we use:


Weather-station
Davis VP2

Weather-program
Weather Display

Weather-server
Dell Poweredge SC420

Provider
1&1

Davis VP2

Weather Display

Dell Poweredge SC420

1&1